sensor_id;sensor_type;location;lat;lon;timestamp;P1;durP1;ratioP1;P2;durP2;ratioP2
14528;SDS011;7351;51.194;4.098;2023-02-02T00:02:06;7.57;;;4.30;;
14528;SDS011;7351;51.194;4.098;2023-02-02T00:04:34;6.97;;;3.70;;
14528;SDS011;7351;51.194;4.098;2023-02-02T00:07:02;6.70;;;4.07;;
14528;SDS011;7351;51.194;4.098;2023-02-02T00:09:31;9.03;;;4.40;;
14528;SDS011;7351;51.194;4.098;2023-02-02T00:11:59;7.23;;;4.13;;
14528;SDS011;7351;51.194;4.098;2023-02-02T00:14:28;7.07;;;3.70;;
14528;SDS011;7351;51.194;4.098;2023-02-02T00:16:55;6.87;;;3.97;;
14528;SDS011;7351;51.194;4.098;2023-02-02T00:19:24;6.67;;;4.20;;
14528;SDS011;7351;51.194;4.098;2023-02-02T00:21:52;5.07;;;3.13;;
14528;SDS011;7351;51.194;4.098;2023-02-02T00:24:20;7.07;;;3.93;;
14528;SDS011;7351;51.194;4.098;2023-02-02T00:26:48;7.10;;;4.30;;
14528;SDS011;7351;51.194;4.098;2023-02-02T00:29:17;6.43;;;4.10;;
14528;SDS011;7351;51.194;4.098;2023-02-02T00:31:48;6.50;;;4.07;;
14528;SDS011;7351;51.194;4.098;2023-02-02T00:34:15;7.60;;;3.97;;
14528;SDS011;7351;51.194;4.098;2023-02-02T00:36:43;8.50;;;4.00;;
14528;SDS011;7351;51.194;4.098;2023-02-02T00:39:11;6.07;;;3.80;;
14528;SDS011;7351;51.194;4.098;2023-02-02T00:41:40;5.83;;;4.10;;
14528;SDS011;7351;51.194;4.098;2023-02-02T00:44:07;5.83;;;4.13;;
14528;SDS011;7351;51.194;4.098;2023-02-02T00:46:53;6.00;;;3.10;;
14528;SDS011;7351;51.194;4.098;2023-02-02T00:49:20;8.43;;;4.80;;
14528;SDS011;7351;51.194;4.098;2023-02-02T00:51:47;8.97;;;4.43;;
14528;SDS011;7351;51.194;4.098;2023-02-02T00:54:14;7.07;;;4.30;;
14528;SDS011;7351;51.194;4.098;2023-02-02T00:56:41;8.47;;;4.33;;
14528;SDS011;7351;51.194;4.098;2023-02-02T00:59:08;9.53;;;4.47;;
14528;SDS011;7351;51.194;4.098;2023-02-02T01:01:35;8.13;;;4.20;;
14528;SDS011;7351;51.194;4.098;2023-02-02T01:04:03;6.23;;;3.37;;
14528;SDS011;7351;51.194;4.098;2023-02-02T01:06:30;9.23;;;4.13;;
14528;SDS011;7351;51.194;4.098;2023-02-02T01:08:58;8.47;;;3.57;;
14528;SDS011;7351;51.194;4.098;2023-02-02T01:11:25;7.83;;;4.53;;
14528;SDS011;7351;51.194;4.098;2023-02-02T01:13:52;9.93;;;4.47;;
14528;SDS011;7351;51.194;4.098;2023-02-02T01:16:19;8.83;;;4.73;;
14528;SDS011;7351;51.194;4.098;2023-02-02T01:18:47;6.93;;;3.63;;
14528;SDS011;7351;51.194;4.098;2023-02-02T01:21:15;8.87;;;4.97;;
14528;SDS011;7351;51.194;4.098;2023-02-02T01:23:43;5.23;;;3.47;;
14528;SDS011;7351;51.194;4.098;2023-02-02T01:26:10;6.73;;;4.10;;
14528;SDS011;7351;51.194;4.098;2023-02-02T01:28:38;6.33;;;3.80;;
14528;SDS011;7351;51.194;4.098;2023-02-02T01:31:06;7.97;;;4.20;;
14528;SDS011;7351;51.194;4.098;2023-02-02T01:33:36;5.80;;;3.53;;
14528;SDS011;7351;51.194;4.098;2023-02-02T01:36:04;8.80;;;4.03;;
14528;SDS011;7351;51.194;4.098;2023-02-02T01:38:34;5.50;;;3.77;;
14528;SDS011;7351;51.194;4.098;2023-02-02T01:41:01;6.13;;;4.00;;
14528;SDS011;7351;51.194;4.098;2023-02-02T01:43:29;7.23;;;4.00;;
14528;SDS011;7351;51.194;4.098;2023-02-02T01:46:17;6.67;;;3.93;;
14528;SDS011;7351;51.194;4.098;2023-02-02T01:48:46;7.10;;;3.80;;
14528;SDS011;7351;51.194;4.098;2023-02-02T01:51:17;5.60;;;3.33;;
14528;SDS011;7351;51.194;4.098;2023-02-02T01:53:48;7.00;;;4.17;;
14528;SDS011;7351;51.194;4.098;2023-02-02T01:56:17;9.17;;;4.10;;
14528;SDS011;7351;51.194;4.098;2023-02-02T01:58:49;7.80;;;4.43;;
14528;SDS011;7351;51.194;4.098;2023-02-02T02:01:16;6.07;;;3.80;;
14528;SDS011;7351;51.194;4.098;2023-02-02T02:03:44;5.77;;;3.23;;
14528;SDS011;7351;51.194;4.098;2023-02-02T02:06:11;5.63;;;3.43;;
14528;SDS011;7351;51.194;4.098;2023-02-02T02:08:43;7.27;;;3.57;;
14528;SDS011;7351;51.194;4.098;2023-02-02T02:11:17;6.30;;;4.20;;
14528;SDS011;7351;51.194;4.098;2023-02-02T02:13:45;6.40;;;3.57;;
14528;SDS011;7351;51.194;4.098;2023-02-02T02:16:34;9.27;;;4.90;;
14528;SDS011;7351;51.194;4.098;2023-02-02T02:19:13;6.23;;;3.13;;
14528;SDS011;7351;51.194;4.098;2023-02-02T02:22:28;8.63;;;4.00;;
14528;SDS011;7351;51.194;4.098;2023-02-02T02:25:38;5.43;;;3.70;;
14528;SDS011;7351;51.194;4.098;2023-02-02T02:28:55;7.33;;;3.50;;
14528;SDS011;7351;51.194;4.098;2023-02-02T02:34:25;8.47;;;3.83;;
14528;SDS011;7351;51.194;4.098;2023-02-02T02:37:04;7.87;;;4.10;;
14528;SDS011;7351;51.194;4.098;2023-02-02T02:39:37;6.23;;;3.03;;
14528;SDS011;7351;51.194;4.098;2023-02-02T02:42:10;6.57;;;3.90;;
14528;SDS011;7351;51.194;4.098;2023-02-02T02:44:40;5.97;;;3.73;;
14528;SDS011;7351;51.194;4.098;2023-02-02T02:47:10;6.13;;;4.33;;
14528;SDS011;7351;51.194;4.098;2023-02-02T02:49:40;6.10;;;4.07;;
14528;SDS011;7351;51.194;4.098;2023-02-02T02:52:08;7.13;;;3.30;;
14528;SDS011;7351;51.194;4.098;2023-02-02T02:54:36;5.53;;;3.80;;
14528;SDS011;7351;51.194;4.098;2023-02-02T02:57:19;7.20;;;3.87;;
14528;SDS011;7351;51.194;4.098;2023-02-02T03:00:07;9.07;;;3.77;;
14528;SDS011;7351;51.194;4.098;2023-02-02T03:02:47;5.83;;;3.43;;
14528;SDS011;7351;51.194;4.098;2023-02-02T03:05:24;7.90;;;4.07;;
14528;SDS011;7351;51.194;4.098;2023-02-02T03:07:59;5.73;;;3.37;;
14528;SDS011;7351;51.194;4.098;2023-02-02T03:10:31;6.53;;;3.47;;
14528;SDS011;7351;51.194;4.098;2023-02-02T03:12:59;6.10;;;3.53;;
14528;SDS011;7351;51.194;4.098;2023-02-02T03:15:27;5.40;;;3.53;;
14528;SDS011;7351;51.194;4.098;2023-02-02T03:17:55;10.03;;;4.00;;
14528;SDS011;7351;51.194;4.098;2023-02-02T03:20:22;8.57;;;3.90;;
14528;SDS011;7351;51.194;4.098;2023-02-02T03:22:49;8.77;;;4.37;;
14528;SDS011;7351;51.194;4.098;2023-02-02T03:25:16;9.57;;;3.83;;
14528;SDS011;7351;51.194;4.098;2023-02-02T03:27:43;12.53;;;5.40;;
14528;SDS011;7351;51.194;4.098;2023-02-02T03:30:10;7.80;;;3.60;;
14528;SDS011;7351;51.194;4.098;2023-02-02T03:32:38;7.97;;;3.70;;
14528;SDS011;7351;51.194;4.098;2023-02-02T03:35:08;16.70;;;4.47;;
14528;SDS011;7351;51.194;4.098;2023-02-02T03:37:35;8.70;;;4.27;;
14528;SDS011;7351;51.194;4.098;2023-02-02T03:40:02;8.13;;;4.13;;
14528;SDS011;7351;51.194;4.098;2023-02-02T03:42:30;8.67;;;4.20;;
14528;SDS011;7351;51.194;4.098;2023-02-02T03:44:57;6.50;;;3.70;;
14528;SDS011;7351;51.194;4.098;2023-02-02T03:47:26;7.00;;;3.80;;
14528;SDS011;7351;51.194;4.098;2023-02-02T03:49:53;6.40;;;3.80;;
14528;SDS011;7351;51.194;4.098;2023-02-02T03:52:22;8.97;;;3.57;;
14528;SDS011;7351;51.194;4.098;2023-02-02T03:54:50;5.80;;;3.17;;
14528;SDS011;7351;51.194;4.098;2023-02-02T03:57:17;7.43;;;3.70;;
14528;SDS011;7351;51.194;4.098;2023-02-02T03:59:44;7.43;;;4.27;;
14528;SDS011;7351;51.194;4.098;2023-02-02T04:02:11;7.00;;;4.30;;
14528;SDS011;7351;51.194;4.098;2023-02-02T04:04:38;8.50;;;3.90;;
14528;SDS011;7351;51.194;4.098;2023-02-02T04:07:05;6.03;;;3.97;;
14528;SDS011;7351;51.194;4.098;2023-02-02T04:09:33;6.77;;;4.47;;
14528;SDS011;7351;51.194;4.098;2023-02-02T04:12:00;5.13;;;3.57;;
14528;SDS011;7351;51.194;4.098;2023-02-02T04:14:27;10.33;;;3.67;;
14528;SDS011;7351;51.194;4.098;2023-02-02T04:16:54;6.10;;;3.30;;
14528;SDS011;7351;51.194;4.098;2023-02-02T04:19:21;8.50;;;3.67;;
14528;SDS011;7351;51.194;4.098;2023-02-02T04:21:48;6.53;;;4.00;;
14528;SDS011;7351;51.194;4.098;2023-02-02T04:24:15;7.77;;;3.90;;
14528;SDS011;7351;51.194;4.098;2023-02-02T04:26:43;5.23;;;3.00;;
14528;SDS011;7351;51.194;4.098;2023-02-02T04:29:10;6.87;;;3.83;;
14528;SDS011;7351;51.194;4.098;2023-02-02T04:31:37;7.77;;;4.03;;
14528;SDS011;7351;51.194;4.098;2023-02-02T04:34:04;6.23;;;3.30;;
14528;SDS011;7351;51.194;4.098;2023-02-02T04:36:31;4.83;;;3.17;;
14528;SDS011;7351;51.194;4.098;2023-02-02T04:38:58;8.13;;;4.53;;
14528;SDS011;7351;51.194;4.098;2023-02-02T04:41:25;8.00;;;4.40;;
14528;SDS011;7351;51.194;4.098;2023-02-02T04:43:53;5.93;;;3.50;;
14528;SDS011;7351;51.194;4.098;2023-02-02T04:46:20;7.77;;;4.60;;
14528;SDS011;7351;51.194;4.098;2023-02-02T04:48:48;5.47;;;4.00;;
14528;SDS011;7351;51.194;4.098;2023-02-02T04:51:15;7.83;;;4.17;;
14528;SDS011;7351;51.194;4.098;2023-02-02T04:53:42;8.00;;;3.77;;
14528;SDS011;7351;51.194;4.098;2023-02-02T04:56:11;7.13;;;3.80;;
14528;SDS011;7351;51.194;4.098;2023-02-02T04:58:39;6.23;;;3.00;;
14528;SDS011;7351;51.194;4.098;2023-02-02T05:01:11;5.27;;;3.50;;
14528;SDS011;7351;51.194;4.098;2023-02-02T05:03:41;8.60;;;3.80;;
14528;SDS011;7351;51.194;4.098;2023-02-02T05:06:08;9.10;;;3.97;;
14528;SDS011;7351;51.194;4.098;2023-02-02T05:08:35;14.13;;;5.17;;
14528;SDS011;7351;51.194;4.098;2023-02-02T05:11:05;9.13;;;4.07;;
14528;SDS011;7351;51.194;4.098;2023-02-02T05:13:33;6.77;;;4.00;;
14528;SDS011;7351;51.194;4.098;2023-02-02T05:16:00;8.53;;;4.37;;
14528;SDS011;7351;51.194;4.098;2023-02-02T05:18:28;10.63;;;5.33;;
14528;SDS011;7351;51.194;4.098;2023-02-02T05:20:57;8.87;;;4.43;;
14528;SDS011;7351;51.194;4.098;2023-02-02T05:23:25;8.50;;;5.07;;
14528;SDS011;7351;51.194;4.098;2023-02-02T05:25:53;8.30;;;4.33;;
14528;SDS011;7351;51.194;4.098;2023-02-02T05:28:20;11.07;;;5.00;;
14528;SDS011;7351;51.194;4.098;2023-02-02T05:30:48;8.43;;;4.47;;
14528;SDS011;7351;51.194;4.098;2023-02-02T05:33:15;8.60;;;4.50;;
14528;SDS011;7351;51.194;4.098;2023-02-02T05:35:45;8.07;;;4.37;;
14528;SDS011;7351;51.194;4.098;2023-02-02T05:38:12;10.70;;;4.00;;
14528;SDS011;7351;51.194;4.098;2023-02-02T05:40:40;8.57;;;4.57;;
14528;SDS011;7351;51.194;4.098;2023-02-02T05:43:07;62.93;;;58.23;;
14528;SDS011;7351;51.194;4.098;2023-02-02T05:45:34;70.03;;;64.80;;
14528;SDS011;7351;51.194;4.098;2023-02-02T05:48:01;111.10;;;103.17;;
14528;SDS011;7351;51.194;4.098;2023-02-02T05:50:27;82.87;;;76.60;;
14528;SDS011;7351;51.194;4.098;2023-02-02T05:52:56;74.27;;;68.90;;
14528;SDS011;7351;51.194;4.098;2023-02-02T05:55:23;65.63;;;61.20;;
14528;SDS011;7351;51.194;4.098;2023-02-02T05:57:50;58.50;;;54.57;;
14528;SDS011;7351;51.194;4.098;2023-02-02T06:00:17;49.93;;;46.50;;
14528;SDS011;7351;51.194;4.098;2023-02-02T06:02:45;44.93;;;41.53;;
14528;SDS011;7351;51.194;4.098;2023-02-02T06:05:12;42.30;;;38.60;;
14528;SDS011;7351;51.194;4.098;2023-02-02T06:07:39;39.17;;;36.17;;
14528;SDS011;7351;51.194;4.098;2023-02-02T06:10:08;38.43;;;35.80;;
14528;SDS011;7351;51.194;4.098;2023-02-02T06:12:35;33.87;;;31.33;;
14528;SDS011;7351;51.194;4.098;2023-02-02T06:15:02;39.13;;;35.73;;
14528;SDS011;7351;51.194;4.098;2023-02-02T06:17:30;32.23;;;29.93;;
14528;SDS011;7351;51.194;4.098;2023-02-02T06:19:57;31.47;;;28.50;;
14528;SDS011;7351;51.194;4.098;2023-02-02T06:22:24;32.90;;;30.10;;
14528;SDS011;7351;51.194;4.098;2023-02-02T06:24:51;29.97;;;27.57;;
14528;SDS011;7351;51.194;4.098;2023-02-02T06:27:19;30.33;;;28.03;;
14528;SDS011;7351;51.194;4.098;2023-02-02T06:29:46;28.23;;;26.07;;
14528;SDS011;7351;51.194;4.098;2023-02-02T06:32:13;29.10;;;26.70;;
14528;SDS011;7351;51.194;4.098;2023-02-02T06:34:40;28.50;;;26.07;;
14528;SDS011;7351;51.194;4.098;2023-02-02T06:37:07;23.73;;;21.80;;
14528;SDS011;7351;51.194;4.098;2023-02-02T06:39:34;24.87;;;22.70;;
14528;SDS011;7351;51.194;4.098;2023-02-02T06:42:01;26.10;;;23.97;;
14528;SDS011;7351;51.194;4.098;2023-02-02T06:44:30;23.60;;;21.87;;
14528;SDS011;7351;51.194;4.098;2023-02-02T06:46:57;22.53;;;20.73;;
14528;SDS011;7351;51.194;4.098;2023-02-02T06:49:24;22.60;;;20.80;;
14528;SDS011;7351;51.194;4.098;2023-02-02T06:51:51;19.70;;;18.43;;
14528;SDS011;7351;51.194;4.098;2023-02-02T06:54:18;20.77;;;18.87;;
14528;SDS011;7351;51.194;4.098;2023-02-02T06:56:45;19.43;;;17.93;;
14528;SDS011;7351;51.194;4.098;2023-02-02T06:59:11;19.13;;;17.63;;
14528;SDS011;7351;51.194;4.098;2023-02-02T07:01:40;19.43;;;18.00;;
14528;SDS011;7351;51.194;4.098;2023-02-02T07:04:07;17.23;;;15.93;;
14528;SDS011;7351;51.194;4.098;2023-02-02T07:06:34;15.90;;;14.60;;
14528;SDS011;7351;51.194;4.098;2023-02-02T07:09:01;16.93;;;15.27;;
14528;SDS011;7351;51.194;4.098;2023-02-02T07:11:28;15.33;;;13.90;;
14528;SDS011;7351;51.194;4.098;2023-02-02T07:13:55;15.97;;;14.50;;
14528;SDS011;7351;51.194;4.098;2023-02-02T07:16:22;16.37;;;14.97;;
14528;SDS011;7351;51.194;4.098;2023-02-02T07:18:50;16.40;;;13.30;;
14528;SDS011;7351;51.194;4.098;2023-02-02T07:21:18;16.30;;;14.67;;
14528;SDS011;7351;51.194;4.098;2023-02-02T07:23:46;13.67;;;12.57;;
14528;SDS011;7351;51.194;4.098;2023-02-02T07:26:14;13.50;;;12.17;;
14528;SDS011;7351;51.194;4.098;2023-02-02T07:28:42;12.77;;;11.63;;
14528;SDS011;7351;51.194;4.098;2023-02-02T07:31:13;13.97;;;12.90;;
14528;SDS011;7351;51.194;4.098;2023-02-02T07:33:41;12.03;;;11.00;;
14528;SDS011;7351;51.194;4.098;2023-02-02T07:36:10;12.67;;;11.67;;
14528;SDS011;7351;51.194;4.098;2023-02-02T07:38:38;12.40;;;11.47;;
14528;SDS011;7351;51.194;4.098;2023-02-02T07:41:05;12.40;;;11.20;;
14528;SDS011;7351;51.194;4.098;2023-02-02T07:43:32;11.77;;;10.53;;
14528;SDS011;7351;51.194;4.098;2023-02-02T07:45:59;13.67;;;12.37;;
14528;SDS011;7351;51.194;4.098;2023-02-02T07:48:27;11.90;;;11.00;;
14528;SDS011;7351;51.194;4.098;2023-02-02T07:50:57;11.67;;;10.63;;
14528;SDS011;7351;51.194;4.098;2023-02-02T07:53:26;11.90;;;10.87;;
14528;SDS011;7351;51.194;4.098;2023-02-02T07:55:53;11.50;;;9.97;;
14528;SDS011;7351;51.194;4.098;2023-02-02T07:58:33;9.97;;;9.20;;
14528;SDS011;7351;51.194;4.098;2023-02-02T08:01:01;9.50;;;8.60;;
14528;SDS011;7351;51.194;4.098;2023-02-02T08:03:28;9.80;;;9.03;;
14528;SDS011;7351;51.194;4.098;2023-02-02T08:05:56;9.23;;;8.40;;
14528;SDS011;7351;51.194;4.098;2023-02-02T08:08:23;9.83;;;8.70;;
14528;SDS011;7351;51.194;4.098;2023-02-02T08:10:52;9.77;;;8.97;;
14528;SDS011;7351;51.194;4.098;2023-02-02T08:13:19;9.27;;;8.37;;
14528;SDS011;7351;51.194;4.098;2023-02-02T08:15:46;9.83;;;8.60;;
14528;SDS011;7351;51.194;4.098;2023-02-02T08:18:13;8.63;;;7.77;;
14528;SDS011;7351;51.194;4.098;2023-02-02T08:20:41;8.53;;;7.43;;
14528;SDS011;7351;51.194;4.098;2023-02-02T08:23:08;9.10;;;7.23;;
14528;SDS011;7351;51.194;4.098;2023-02-02T08:25:41;8.57;;;7.67;;
14528;SDS011;7351;51.194;4.098;2023-02-02T08:28:08;8.10;;;7.33;;
14528;SDS011;7351;51.194;4.098;2023-02-02T08:30:35;8.03;;;7.27;;
14528;SDS011;7351;51.194;4.098;2023-02-02T08:33:02;8.07;;;7.30;;
14528;SDS011;7351;51.194;4.098;2023-02-02T08:35:29;10.00;;;7.27;;
14528;SDS011;7351;51.194;4.098;2023-02-02T08:37:56;8.43;;;7.37;;
14528;SDS011;7351;51.194;4.098;2023-02-02T08:40:26;9.83;;;6.90;;
14528;SDS011;7351;51.194;4.098;2023-02-02T08:42:55;8.77;;;7.60;;
14528;SDS011;7351;51.194;4.098;2023-02-02T08:45:22;9.73;;;7.63;;
14528;SDS011;7351;51.194;4.098;2023-02-02T08:47:49;7.27;;;6.33;;
14528;SDS011;7351;51.194;4.098;2023-02-02T08:50:16;10.03;;;7.40;;
14528;SDS011;7351;51.194;4.098;2023-02-02T08:52:43;6.57;;;5.93;;
14528;SDS011;7351;51.194;4.098;2023-02-02T08:55:10;5.80;;;5.33;;
14528;SDS011;7351;51.194;4.098;2023-02-02T08:57:39;11.83;;;7.03;;
14528;SDS011;7351;51.194;4.098;2023-02-02T09:00:07;7.83;;;5.73;;
14528;SDS011;7351;51.194;4.098;2023-02-02T09:02:35;8.67;;;6.40;;
14528;SDS011;7351;51.194;4.098;2023-02-02T09:05:02;8.67;;;6.60;;
14528;SDS011;7351;51.194;4.098;2023-02-02T09:07:31;7.40;;;5.50;;
14528;SDS011;7351;51.194;4.098;2023-02-02T09:09:58;11.37;;;6.60;;
14528;SDS011;7351;51.194;4.098;2023-02-02T09:12:25;9.00;;;5.10;;
14528;SDS011;7351;51.194;4.098;2023-02-02T09:14:52;8.30;;;5.50;;
14528;SDS011;7351;51.194;4.098;2023-02-02T09:17:20;6.03;;;4.93;;
14528;SDS011;7351;51.194;4.098;2023-02-02T09:19:48;10.57;;;5.83;;
14528;SDS011;7351;51.194;4.098;2023-02-02T09:22:15;7.93;;;5.67;;
14528;SDS011;7351;51.194;4.098;2023-02-02T09:24:42;13.07;;;6.20;;
14528;SDS011;7351;51.194;4.098;2023-02-02T09:27:09;11.77;;;5.70;;
14528;SDS011;7351;51.194;4.098;2023-02-02T09:29:36;6.53;;;4.67;;
14528;SDS011;7351;51.194;4.098;2023-02-02T09:32:03;12.17;;;5.87;;
14528;SDS011;7351;51.194;4.098;2023-02-02T09:34:32;12.17;;;5.73;;
14528;SDS011;7351;51.194;4.098;2023-02-02T09:36:59;8.23;;;5.63;;
14528;SDS011;7351;51.194;4.098;2023-02-02T09:39:26;11.30;;;5.43;;
14528;SDS011;7351;51.194;4.098;2023-02-02T09:44:59;9.30;;;5.37;;
14528;SDS011;7351;51.194;4.098;2023-02-02T09:47:34;5.60;;;4.67;;
14528;SDS011;7351;51.194;4.098;2023-02-02T09:50:19;6.00;;;4.63;;
14528;SDS011;7351;51.194;4.098;2023-02-02T09:53:04;7.87;;;4.50;;
14528;SDS011;7351;51.194;4.098;2023-02-02T09:55:36;6.93;;;4.47;;
14528;SDS011;7351;51.194;4.098;2023-02-02T09:58:06;10.27;;;6.10;;
14528;SDS011;7351;51.194;4.098;2023-02-02T10:00:41;6.37;;;4.63;;
14528;SDS011;7351;51.194;4.098;2023-02-02T10:03:13;6.00;;;4.30;;
14528;SDS011;7351;51.194;4.098;2023-02-02T10:05:47;9.83;;;4.37;;
14528;SDS011;7351;51.194;4.098;2023-02-02T10:08:20;7.63;;;4.67;;
14528;SDS011;7351;51.194;4.098;2023-02-02T10:10:53;6.93;;;4.53;;
14528;SDS011;7351;51.194;4.098;2023-02-02T10:13:22;7.57;;;4.30;;
14528;SDS011;7351;51.194;4.098;2023-02-02T10:15:56;7.17;;;4.20;;
14528;SDS011;7351;51.194;4.098;2023-02-02T10:18:31;6.57;;;4.73;;
14528;SDS011;7351;51.194;4.098;2023-02-02T10:21:07;6.57;;;4.57;;
14528;SDS011;7351;51.194;4.098;2023-02-02T10:23:38;6.07;;;4.23;;
14528;SDS011;7351;51.194;4.098;2023-02-02T10:26:08;6.80;;;5.03;;
14528;SDS011;7351;51.194;4.098;2023-02-02T10:28:44;6.17;;;4.80;;
14528;SDS011;7351;51.194;4.098;2023-02-02T10:31:23;8.20;;;4.13;;
14528;SDS011;7351;51.194;4.098;2023-02-02T10:34:07;10.90;;;4.77;;
14528;SDS011;7351;51.194;4.098;2023-02-02T10:36:52;6.63;;;3.87;;
14528;SDS011;7351;51.194;4.098;2023-02-02T10:39:43;7.83;;;4.00;;
14528;SDS011;7351;51.194;4.098;2023-02-02T10:42:24;4.40;;;3.53;;
14528;SDS011;7351;51.194;4.098;2023-02-02T10:45:01;6.03;;;4.30;;
14528;SDS011;7351;51.194;4.098;2023-02-02T10:47:33;6.80;;;4.70;;
14528;SDS011;7351;51.194;4.098;2023-02-02T10:50:06;4.53;;;3.67;;
14528;SDS011;7351;51.194;4.098;2023-02-02T10:52:44;7.30;;;3.87;;
14528;SDS011;7351;51.194;4.098;2023-02-02T10:55:17;8.53;;;3.43;;
14528;SDS011;7351;51.194;4.098;2023-02-02T10:57:52;9.67;;;4.57;;
14528;SDS011;7351;51.194;4.098;2023-02-02T11:00:29;6.10;;;3.70;;
14528;SDS011;7351;51.194;4.098;2023-02-02T11:03:00;9.10;;;5.07;;
14528;SDS011;7351;51.194;4.098;2023-02-02T11:05:28;6.10;;;4.07;;
14528;SDS011;7351;51.194;4.098;2023-02-02T11:08:16;7.80;;;3.23;;
14528;SDS011;7351;51.194;4.098;2023-02-02T11:10:45;6.87;;;3.97;;
14528;SDS011;7351;51.194;4.098;2023-02-02T11:13:14;7.57;;;3.63;;
14528;SDS011;7351;51.194;4.098;2023-02-02T11:15:46;4.60;;;3.23;;
14528;SDS011;7351;51.194;4.098;2023-02-02T11:18:14;9.10;;;3.03;;
14528;SDS011;7351;51.194;4.098;2023-02-02T11:20:53;6.27;;;3.57;;
14528;SDS011;7351;51.194;4.098;2023-02-02T11:23:22;6.77;;;3.87;;
14528;SDS011;7351;51.194;4.098;2023-02-02T11:25:56;6.20;;;3.40;;
14528;SDS011;7351;51.194;4.098;2023-02-02T11:28:25;7.60;;;3.37;;
14528;SDS011;7351;51.194;4.098;2023-02-02T11:30:56;10.57;;;3.53;;
14528;SDS011;7351;51.194;4.098;2023-02-02T11:33:27;5.47;;;2.90;;
14528;SDS011;7351;51.194;4.098;2023-02-02T11:35:56;8.47;;;3.03;;
14528;SDS011;7351;51.194;4.098;2023-02-02T11:38:25;8.10;;;2.93;;
14528;SDS011;7351;51.194;4.098;2023-02-02T11:40:53;7.17;;;3.53;;
14528;SDS011;7351;51.194;4.098;2023-02-02T11:43:25;6.80;;;2.80;;
14528;SDS011;7351;51.194;4.098;2023-02-02T11:45:56;7.23;;;3.93;;
14528;SDS011;7351;51.194;4.098;2023-02-02T11:48:26;7.50;;;2.67;;
14528;SDS011;7351;51.194;4.098;2023-02-02T11:50:56;8.07;;;3.93;;
14528;SDS011;7351;51.194;4.098;2023-02-02T11:53:28;10.90;;;3.70;;
14528;SDS011;7351;51.194;4.098;2023-02-02T11:55:57;5.57;;;3.60;;
14528;SDS011;7351;51.194;4.098;2023-02-02T11:58:26;7.90;;;3.53;;
14528;SDS011;7351;51.194;4.098;2023-02-02T12:00:56;8.20;;;2.70;;
14528;SDS011;7351;51.194;4.098;2023-02-02T12:03:27;5.67;;;2.80;;
14528;SDS011;7351;51.194;4.098;2023-02-02T12:05:58;4.57;;;3.10;;
14528;SDS011;7351;51.194;4.098;2023-02-02T12:08:29;6.77;;;3.27;;
14528;SDS011;7351;51.194;4.098;2023-02-02T12:10:57;6.73;;;2.73;;
14528;SDS011;7351;51.194;4.098;2023-02-02T12:13:33;4.87;;;3.23;;
14528;SDS011;7351;51.194;4.098;2023-02-02T12:16:21;4.57;;;3.13;;
14528;SDS011;7351;51.194;4.098;2023-02-02T12:19:03;5.47;;;2.70;;
14528;SDS011;7351;51.194;4.098;2023-02-02T12:21:46;7.63;;;2.83;;
14528;SDS011;7351;51.194;4.098;2023-02-02T12:24:26;9.97;;;3.10;;
14528;SDS011;7351;51.194;4.098;2023-02-02T12:26:59;7.47;;;3.13;;
14528;SDS011;7351;51.194;4.098;2023-02-02T12:32:35;5.67;;;2.97;;
14528;SDS011;7351;51.194;4.098;2023-02-02T12:35:21;6.67;;;2.50;;
14528;SDS011;7351;51.194;4.098;2023-02-02T12:37:59;4.47;;;2.63;;
14528;SDS011;7351;51.194;4.098;2023-02-02T12:40:37;8.50;;;2.77;;
14528;SDS011;7351;51.194;4.098;2023-02-02T12:43:22;8.50;;;2.90;;
14528;SDS011;7351;51.194;4.098;2023-02-02T12:46:02;7.13;;;2.60;;
14528;SDS011;7351;51.194;4.098;2023-02-02T12:48:49;14.70;;;3.87;;
14528;SDS011;7351;51.194;4.098;2023-02-02T12:51:36;5.07;;;2.73;;
14528;SDS011;7351;51.194;4.098;2023-02-02T12:57:09;9.00;;;3.27;;
14528;SDS011;7351;51.194;4.098;2023-02-02T12:59:48;6.23;;;3.00;;
14528;SDS011;7351;51.194;4.098;2023-02-02T13:02:29;7.10;;;3.47;;
14528;SDS011;7351;51.194;4.098;2023-02-02T13:05:05;7.33;;;3.10;;
14528;SDS011;7351;51.194;4.098;2023-02-02T13:07:45;8.63;;;4.00;;
14528;SDS011;7351;51.194;4.098;2023-02-02T13:10:15;6.73;;;3.07;;
14528;SDS011;7351;51.194;4.098;2023-02-02T13:12:50;4.60;;;2.33;;
14528;SDS011;7351;51.194;4.098;2023-02-02T13:15:21;6.77;;;2.73;;
14528;SDS011;7351;51.194;4.098;2023-02-02T13:17:52;5.33;;;2.80;;
14528;SDS011;7351;51.194;4.098;2023-02-02T13:20:30;4.10;;;2.53;;
14528;SDS011;7351;51.194;4.098;2023-02-02T13:23:04;3.20;;;2.50;;
14528;SDS011;7351;51.194;4.098;2023-02-02T13:25:36;4.97;;;3.07;;
14528;SDS011;7351;51.194;4.098;2023-02-02T13:28:17;5.30;;;2.90;;
14528;SDS011;7351;51.194;4.098;2023-02-02T13:30:53;4.23;;;2.73;;
14528;SDS011;7351;51.194;4.098;2023-02-02T13:33:26;6.80;;;3.63;;
14528;SDS011;7351;51.194;4.098;2023-02-02T13:35:59;2.53;;;2.27;;
14528;SDS011;7351;51.194;4.098;2023-02-02T13:38:31;5.77;;;2.37;;
14528;SDS011;7351;51.194;4.098;2023-02-02T13:40:59;5.90;;;2.60;;
14528;SDS011;7351;51.194;4.098;2023-02-02T13:43:36;4.67;;;2.33;;
14528;SDS011;7351;51.194;4.098;2023-02-02T13:46:13;5.43;;;2.90;;
14528;SDS011;7351;51.194;4.098;2023-02-02T13:48:50;8.73;;;2.93;;
14528;SDS011;7351;51.194;4.098;2023-02-02T13:51:37;6.20;;;2.27;;
14528;SDS011;7351;51.194;4.098;2023-02-02T13:54:24;4.47;;;2.43;;
14528;SDS011;7351;51.194;4.098;2023-02-02T14:00:32;6.33;;;2.67;;
14528;SDS011;7351;51.194;4.098;2023-02-02T14:03:01;4.43;;;2.30;;
14528;SDS011;7351;51.194;4.098;2023-02-02T14:05:31;4.40;;;2.20;;
14528;SDS011;7351;51.194;4.098;2023-02-02T14:08:01;2.87;;;2.10;;
14528;SDS011;7351;51.194;4.098;2023-02-02T14:10:32;8.03;;;2.83;;
14528;SDS011;7351;51.194;4.098;2023-02-02T14:13:06;4.60;;;2.43;;
14528;SDS011;7351;51.194;4.098;2023-02-02T14:15:54;5.07;;;2.40;;
14528;SDS011;7351;51.194;4.098;2023-02-02T14:30:20;2.73;;;1.63;;
14528;SDS011;7351;51.194;4.098;2023-02-02T14:32:54;4.13;;;2.50;;
14528;SDS011;7351;51.194;4.098;2023-02-02T14:36:01;2.20;;;2.00;;
14528;SDS011;7351;51.194;4.098;2023-02-02T14:41:22;3.23;;;2.03;;
14528;SDS011;7351;51.194;4.098;2023-02-02T14:44:18;2.67;;;1.77;;
14528;SDS011;7351;51.194;4.098;2023-02-02T14:46:45;1.87;;;1.63;;
14528;SDS011;7351;51.194;4.098;2023-02-02T14:49:15;2.60;;;1.40;;
14528;SDS011;7351;51.194;4.098;2023-02-02T14:51:53;3.90;;;2.33;;
14528;SDS011;7351;51.194;4.098;2023-02-02T14:54:26;2.67;;;1.83;;
14528;SDS011;7351;51.194;4.098;2023-02-02T14:56:57;3.53;;;2.10;;
14528;SDS011;7351;51.194;4.098;2023-02-02T14:59:29;3.33;;;2.07;;
14528;SDS011;7351;51.194;4.098;2023-02-02T15:02:01;2.70;;;1.87;;
14528;SDS011;7351;51.194;4.098;2023-02-02T15:04:36;3.00;;;1.93;;
14528;SDS011;7351;51.194;4.098;2023-02-02T15:10:08;4.40;;;2.70;;
14528;SDS011;7351;51.194;4.098;2023-02-02T15:12:36;2.00;;;1.83;;
14528;SDS011;7351;51.194;4.098;2023-02-02T15:15:08;5.20;;;2.10;;
14528;SDS011;7351;51.194;4.098;2023-02-02T15:17:44;4.13;;;2.20;;
14528;SDS011;7351;51.194;4.098;2023-02-02T15:20:21;2.60;;;2.40;;
14528;SDS011;7351;51.194;4.098;2023-02-02T15:22:54;3.30;;;2.10;;
14528;SDS011;7351;51.194;4.098;2023-02-02T15:25:27;3.57;;;2.27;;
14528;SDS011;7351;51.194;4.098;2023-02-02T15:28:00;2.73;;;1.90;;
14528;SDS011;7351;51.194;4.098;2023-02-02T15:30:34;5.10;;;1.97;;
14528;SDS011;7351;51.194;4.098;2023-02-02T15:33:06;3.27;;;2.20;;
14528;SDS011;7351;51.194;4.098;2023-02-02T15:35:47;4.13;;;2.33;;
14528;SDS011;7351;51.194;4.098;2023-02-02T15:38:15;3.43;;;2.10;;
14528;SDS011;7351;51.194;4.098;2023-02-02T15:40:45;1.67;;;1.57;;
14528;SDS011;7351;51.194;4.098;2023-02-02T15:43:12;2.80;;;2.23;;
14528;SDS011;7351;51.194;4.098;2023-02-02T15:45:41;3.53;;;1.93;;
14528;SDS011;7351;51.194;4.098;2023-02-02T15:48:16;5.70;;;2.03;;
14528;SDS011;7351;51.194;4.098;2023-02-02T15:50:48;2.80;;;1.77;;
14528;SDS011;7351;51.194;4.098;2023-02-02T15:53:20;5.43;;;1.80;;